createdAt,value
2023-01-12T00:05:37.951Z,101420.63
2023-01-12T00:08:05.375Z,101425.15
2023-01-12T00:10:32.285Z,101428.42
2023-01-12T00:12:59.141Z,101428.27
2023-01-12T00:15:44.754Z,101430.34
2023-01-12T00:18:11.648Z,101434.33
2023-01-12T00:20:38.485Z,101426.58
2023-01-12T00:23:05.490Z,101426.38
2023-01-12T00:25:32.334Z,101433.17
2023-01-12T00:27:59.144Z,101439.19
2023-01-12T00:30:25.936Z,101442.15
2023-01-12T00:32:52.670Z,101436.52
2023-01-12T00:35:19.544Z,101446.52
2023-01-12T00:37:46.397Z,101449.63
2023-01-12T00:40:13.236Z,101448.35
2023-01-12T00:42:59.023Z,101434.83
2023-01-12T00:45:25.846Z,101432.70
2023-01-12T00:47:53.648Z,101439.95
2023-01-12T00:50:20.592Z,101444.48
2023-01-12T00:52:47.421Z,101448.31
2023-01-12T00:55:14.609Z,101445.04
2023-01-12T00:57:41.423Z,101445.77
2023-01-12T01:00:09.200Z,101442.04
2023-01-12T01:02:36.111Z,101435.17
2023-01-12T01:05:03.101Z,101440.87
2023-01-12T01:07:29.898Z,101437.90
2023-01-12T01:09:56.701Z,101438.04
2023-01-12T01:12:23.540Z,101432.46
2023-01-12T01:14:50.394Z,101428.99
2023-01-12T01:17:17.295Z,101427.00
2023-01-12T01:19:44.157Z,101427.94
2023-01-12T01:22:13.023Z,101419.89
2023-01-12T01:24:41.015Z,101416.09
2023-01-12T01:27:07.866Z,101420.58
2023-01-12T01:29:34.634Z,101423.42
2023-01-12T01:32:01.546Z,101422.23
2023-01-12T01:34:28.268Z,101421.48
2023-01-12T01:36:55.036Z,101422.78
2023-01-12T01:39:21.892Z,101423.62
2023-01-12T01:41:48.711Z,101422.81
2023-01-12T01:44:30.996Z,101427.50
2023-01-12T01:47:27.725Z,101426.17
2023-01-12T01:49:55.171Z,101432.70
2023-01-12T01:52:21.953Z,101434.45
2023-01-12T01:54:54.917Z,101434.98
2023-01-12T01:57:24.661Z,101426.70
2023-01-12T01:59:53.133Z,101417.48
2023-01-12T02:02:19.939Z,101416.92
2023-01-12T02:04:46.715Z,101420.77
2023-01-12T02:07:13.521Z,101419.68
2023-01-12T02:09:40.345Z,101413.34
2023-01-12T02:12:26.321Z,101413.23
2023-01-12T02:15:12.044Z,101418.17
2023-01-12T02:18:14.379Z,101422.64
2023-01-12T02:21:05.768Z,101425.29
2023-01-12T02:24:05.028Z,101417.25
2023-01-12T02:27:10.044Z,101413.41
2023-01-12T02:29:57.821Z,101408.24
2023-01-12T02:32:36.868Z,101407.95
2023-01-12T02:35:22.452Z,101402.88
2023-01-12T02:37:58.305Z,101396.42
2023-01-12T02:40:59.561Z,101388.55
2023-01-12T02:43:29.155Z,101380.00
2023-01-12T02:46:01.631Z,101388.40
2023-01-12T02:48:31.288Z,101397.81
2023-01-12T02:51:14.167Z,101396.45
2023-01-12T02:53:50.141Z,101393.61
2023-01-12T02:56:28.215Z,101390.36
2023-01-12T02:58:56.868Z,101390.39
2023-01-12T03:01:24.431Z,101391.60
2023-01-12T03:03:51.235Z,101387.57
2023-01-12T03:06:18.457Z,101385.88
2023-01-12T03:08:46.228Z,101381.46
2023-01-12T03:11:17.052Z,101377.73
2023-01-12T03:13:48.903Z,101377.51
2023-01-12T03:16:18.123Z,101372.30
2023-01-12T03:18:51.382Z,101371.60
2023-01-12T03:21:30.784Z,101370.09
2023-01-12T03:24:02.833Z,101360.63
2023-01-12T03:26:29.654Z,101358.91
2023-01-12T03:29:09.612Z,101363.38
2023-01-12T03:31:36.950Z,101363.95
2023-01-12T03:34:05.010Z,101359.42
2023-01-12T03:36:38.697Z,101357.61
2023-01-12T03:39:13.765Z,101352.96
2023-01-12T03:41:45.922Z,101352.36
2023-01-12T03:44:19.460Z,101347.38
2023-01-12T03:46:53.978Z,101342.83
2023-01-12T03:49:25.478Z,101339.18
2023-01-12T03:51:52.308Z,101329.66
2023-01-12T03:54:19.294Z,101325.19
2023-01-12T03:56:46.158Z,101322.55
2023-01-12T03:59:12.913Z,101324.58
2023-01-12T04:01:41.863Z,101337.84
2023-01-12T04:04:08.716Z,101327.41
2023-01-12T04:06:35.510Z,101320.39
2023-01-12T04:09:02.427Z,101321.87
2023-01-12T04:11:47.968Z,101323.79
2023-01-12T04:14:14.851Z,101322.20
2023-01-12T04:16:41.654Z,101318.58
2023-01-12T04:19:08.709Z,101322.62
2023-01-12T04:21:54.242Z,101323.68
2023-01-12T04:24:21.141Z,101325.92
2023-01-12T04:26:48.009Z,101322.30
2023-01-12T04:29:14.826Z,101330.45
2023-01-12T04:31:41.705Z,101322.42
2023-01-12T04:34:08.815Z,101328.61
2023-01-12T04:36:35.877Z,101325.55
2023-01-12T04:39:03.128Z,101322.95
2023-01-12T04:41:31.100Z,101325.16
2023-01-12T04:43:58.352Z,101319.52
2023-01-12T04:46:25.558Z,101319.43
2023-01-12T04:48:52.654Z,101320.36
2023-01-12T04:51:19.673Z,101314.80
2023-01-12T04:53:48.295Z,101313.59
2023-01-12T04:56:15.363Z,101309.53
2023-01-12T04:58:42.553Z,101310.20
2023-01-12T05:01:14.885Z,101306.79
2023-01-12T05:03:43.001Z,101310.50
2023-01-12T05:06:10.218Z,101301.15
2023-01-12T05:08:56.013Z,101299.30
2023-01-12T05:11:28.693Z,101296.36
2023-01-12T05:13:56.905Z,101290.14
2023-01-12T05:16:24.789Z,101292.02
2023-01-12T05:18:53.496Z,101295.95
2023-01-12T05:21:22.569Z,101298.42
2023-01-12T05:23:51.290Z,101297.38
2023-01-12T05:26:18.606Z,101297.33
2023-01-12T05:28:48.988Z,101284.75
2023-01-12T05:31:16.346Z,101281.44
2023-01-12T05:33:43.631Z,101270.42
2023-01-12T05:36:12.474Z,101268.27
2023-01-12T05:38:39.796Z,101274.66
2023-01-12T05:41:10.404Z,101268.62
2023-01-12T05:43:52.956Z,101268.17
2023-01-12T05:46:28.235Z,101267.20
2023-01-12T05:48:55.943Z,101265.48
2023-01-12T05:51:23.725Z,101270.09
2023-01-12T05:53:50.890Z,101263.72
2023-01-12T05:56:20.127Z,101260.96
2023-01-12T05:58:51.629Z,101261.55
2023-01-12T06:01:18.628Z,101255.04
2023-01-12T06:03:51.912Z,101254.25
2023-01-12T06:06:19.996Z,101258.27
2023-01-12T06:08:47.355Z,101263.67
2023-01-12T06:11:32.897Z,101271.15
2023-01-12T06:14:00.768Z,101274.45
2023-01-12T06:16:28.275Z,101277.78
2023-01-12T06:18:55.981Z,101280.39
2023-01-12T06:21:25.037Z,101284.26
2023-01-12T06:23:52.110Z,101279.23
2023-01-12T06:26:19.286Z,101277.85
2023-01-12T06:28:46.488Z,101276.69
2023-01-12T06:31:13.693Z,101273.10
2023-01-12T06:33:41.269Z,101270.71
2023-01-12T06:36:08.820Z,101274.39
2023-01-12T06:38:37.362Z,101273.00
2023-01-12T06:41:29.339Z,101269.73
2023-01-12T06:43:57.035Z,101272.71
2023-01-12T06:46:24.352Z,101271.16
2023-01-12T06:48:51.642Z,101283.66
2023-01-12T06:51:18.625Z,101277.32
2023-01-12T06:53:45.760Z,101281.59
2023-01-12T06:56:13.149Z,101289.69
2023-01-12T06:58:43.673Z,101287.39
2023-01-12T07:01:13.936Z,101297.73
2023-01-12T07:03:41.029Z,101305.05
2023-01-12T07:06:08.405Z,101311.47
2023-01-12T07:08:35.966Z,101304.13
2023-01-12T07:11:04.410Z,101302.48
2023-01-12T07:13:31.807Z,101301.40
2023-01-12T07:16:02.028Z,101305.92
2023-01-12T10:54:28.217Z,101219.09
2023-01-12T10:56:57.586Z,101211.17
2023-01-12T10:59:29.638Z,101206.10
2023-01-12T11:02:06.701Z,101206.08
2023-01-12T11:04:43.993Z,101204.52
2023-01-12T11:07:22.347Z,101207.23
2023-01-12T11:09:49.367Z,101202.65
2023-01-12T11:12:20.350Z,101199.20
2023-01-12T11:15:14.980Z,101202.70
2023-01-12T11:17:49.595Z,101198.08
2023-01-12T11:20:54.558Z,101195.05
2023-01-12T11:23:33.258Z,101193.16
2023-01-12T11:26:01.323Z,101190.05
2023-01-12T11:28:34.695Z,101187.34
2023-01-12T11:31:15.868Z,101187.28
2023-01-12T11:33:55.132Z,101181.48
2023-01-12T11:36:30.643Z,101181.02
2023-01-12T11:39:01.805Z,101185.98
2023-01-12T11:41:34.327Z,101190.61
2023-01-12T11:44:28.553Z,101198.11
2023-01-12T11:46:59.768Z,101202.05
2023-01-12T11:49:39.575Z,101202.95
2023-01-12T11:52:09.076Z,101195.34
2023-01-12T11:54:36.431Z,101199.23
2023-01-12T11:57:25.101Z,101199.21
2023-01-12T12:00:01.270Z,101202.95
2023-01-12T12:02:39.010Z,101203.52
2023-01-12T12:05:18.927Z,101190.89
2023-01-12T12:07:49.665Z,101181.05
2023-01-12T12:10:24.054Z,101175.27
2023-01-12T12:13:11.229Z,101166.27
2023-01-12T12:15:56.193Z,101162.92
2023-01-12T12:18:41.636Z,101167.89
2023-01-12T12:21:32.634Z,101175.19
2023-01-12T12:24:06.743Z,101174.83
2023-01-12T12:26:39.719Z,101173.55
2023-01-12T12:29:19.982Z,101163.88
2023-01-12T12:31:52.982Z,101170.88
2023-01-12T12:34:27.903Z,101171.42
2023-01-12T12:37:02.933Z,101170.22
2023-01-12T12:39:56.072Z,101173.96
2023-01-12T12:43:06.404Z,101173.51
2023-01-12T12:45:43.333Z,101178.19
2023-01-12T12:48:21.135Z,101178.89
2023-01-12T12:51:03.122Z,101175.86
2023-01-12T12:53:33.408Z,101171.39
2023-01-12T12:56:11.156Z,101166.77
2023-01-12T12:58:44.984Z,101170.34
2023-01-12T13:01:21.330Z,101171.34
2023-01-12T13:03:49.194Z,101167.67
2023-01-12T13:06:29.345Z,101167.02
2023-01-12T13:08:57.626Z,101166.40
2023-01-12T18:09:26.106Z,101118.42
2023-01-12T18:11:52.993Z,101119.21
2023-01-12T18:14:21.485Z,101119.05
2023-01-12T18:16:48.284Z,101122.38
2023-01-12T18:19:15.152Z,101127.06
2023-01-12T18:21:42.082Z,101124.11
2023-01-12T18:24:09.005Z,101127.43
2023-01-12T18:26:36.087Z,101125.52
2023-01-12T18:29:04.474Z,101124.84
2023-01-12T18:31:32.281Z,101128.92
2023-01-12T18:34:06.297Z,101131.66
2023-01-12T18:36:37.870Z,101132.55
2023-01-12T18:39:06.190Z,101135.43
2023-01-12T18:41:51.931Z,101139.60
2023-01-12T18:44:18.730Z,101139.95
2023-01-12T18:47:04.281Z,101136.10
2023-01-12T18:49:33.375Z,101137.17
2023-01-12T18:52:18.990Z,101130.80
2023-01-12T18:54:48.236Z,101133.40
2023-01-12T18:57:19.310Z,101130.48
2023-01-12T18:59:46.754Z,101131.70
2023-01-12T19:02:13.927Z,101128.77
2023-01-12T19:04:43.726Z,101132.01
2023-01-12T19:07:12.916Z,101133.95
2023-01-12T19:09:39.860Z,101133.64
2023-01-12T19:12:06.908Z,101126.14
2023-01-12T19:14:52.799Z,101117.23
2023-01-12T19:17:32.777Z,101120.77
2023-01-12T19:20:01.547Z,101123.45
2023-01-12T19:22:47.225Z,101125.09
2023-01-12T19:25:33.926Z,101123.19
2023-01-12T19:28:19.830Z,101125.06
2023-01-12T19:30:46.937Z,101123.48
2023-01-12T19:33:17.367Z,101123.60
2023-01-12T19:35:45.359Z,101124.83
2023-01-12T19:38:15.382Z,101125.19
2023-01-12T19:40:49.687Z,101131.11
2023-01-12T19:43:20.454Z,101135.33
2023-01-12T19:45:49.634Z,101139.64
2023-01-12T19:48:17.660Z,101141.34
2023-01-12T19:50:44.956Z,101138.15
2023-01-12T19:53:13.472Z,101138.38
2023-01-12T19:55:41.276Z,101134.70
2023-01-12T19:58:09.498Z,101132.92
2023-01-12T20:00:39.283Z,101130.56
2023-01-12T20:03:06.394Z,101134.19
2023-01-12T20:05:33.305Z,101130.73
2023-01-12T20:08:00.227Z,101126.52
2023-01-12T20:10:27.116Z,101119.83
2023-01-12T20:12:54.838Z,101121.35
2023-01-12T20:15:22.029Z,101121.23
2023-01-12T20:17:49.444Z,101118.95
2023-01-12T20:20:16.999Z,101124.38
2023-01-12T20:22:44.145Z,101126.56
2023-01-12T20:25:11.087Z,101127.58
2023-01-12T20:27:38.135Z,101130.56
2023-01-12T20:30:06.017Z,101126.92
2023-01-12T20:32:34.981Z,101121.90
2023-01-12T20:35:05.927Z,101119.46
2023-01-12T20:37:33.799Z,101113.79
2023-01-12T20:40:00.954Z,101111.76
2023-01-12T20:42:29.296Z,101105.73
2023-01-12T20:44:57.587Z,101103.87
2023-01-12T20:47:28.480Z,101103.00
2023-01-12T20:49:55.896Z,101099.56
2023-01-12T20:52:23.867Z,101093.45
2023-01-12T20:54:50.745Z,101093.70
2023-01-12T20:57:17.720Z,101093.01
2023-01-12T20:59:44.689Z,101094.25
2023-01-12T21:02:29.871Z,101093.57
2023-01-12T21:04:56.678Z,101096.25
2023-01-12T21:07:23.659Z,101089.52
2023-01-12T21:09:50.500Z,101090.89
2023-01-12T21:12:17.352Z,101087.19
2023-01-12T21:14:44.131Z,101081.33
2023-01-12T21:17:11.749Z,101080.46
2023-01-12T21:19:38.692Z,101083.52
2023-01-12T21:22:05.501Z,101090.56
2023-01-12T21:24:32.478Z,101089.38
2023-01-12T21:26:59.430Z,101091.33
2023-01-12T21:29:26.413Z,101091.66
2023-01-12T21:31:53.463Z,101090.83
2023-01-12T21:34:20.504Z,101088.55
2023-01-12T21:36:47.521Z,101090.77
2023-01-12T21:39:14.533Z,101090.81
2023-01-12T21:42:00.219Z,101084.15
2023-01-12T21:44:27.807Z,101081.79
2023-01-12T21:46:54.571Z,101084.02
2023-01-12T21:49:21.458Z,101083.65
2023-01-12T21:51:48.258Z,101088.16
2023-01-12T21:54:15.071Z,101091.00
2023-01-12T21:56:41.918Z,101092.14
2023-01-12T21:59:10.452Z,101091.86
2023-01-12T22:01:37.235Z,101093.14
2023-01-12T22:04:04.359Z,101096.35
2023-01-12T22:06:31.338Z,101095.77
2023-01-12T22:08:58.715Z,101091.98
2023-01-12T22:11:25.583Z,101085.54
2023-01-12T22:13:52.572Z,101079.94
2023-01-12T22:16:19.441Z,101078.70
2023-01-12T22:18:49.393Z,101075.66
2023-01-12T22:21:17.136Z,101071.75
2023-01-12T22:23:44.054Z,101080.30
2023-01-12T22:26:12.553Z,101086.43
2023-01-12T22:28:41.176Z,101087.70
2023-01-12T22:31:09.154Z,101089.31
2023-01-12T22:33:36.685Z,101088.25
2023-01-12T22:36:04.665Z,101088.54
2023-01-12T22:38:31.565Z,101092.79
2023-01-12T22:41:06.386Z,101092.03
2023-01-12T22:43:38.717Z,101090.27
2023-01-12T22:46:05.579Z,101086.58
2023-01-12T22:48:32.488Z,101086.42
2023-01-12T22:50:59.886Z,101083.05
2023-01-12T22:53:26.723Z,101079.90
2023-01-12T22:55:53.549Z,101081.44
2023-01-12T22:58:20.424Z,101079.44
2023-01-12T23:00:48.903Z,101076.96
2023-01-12T23:03:15.987Z,101084.75
2023-01-12T23:05:46.010Z,101087.76
2023-01-12T23:08:13.939Z,101087.02
2023-01-12T23:10:41.498Z,101082.34
2023-01-12T23:13:11.853Z,101086.58
2023-01-12T23:15:43.504Z,101084.64
2023-01-12T23:18:10.727Z,101087.34
2023-01-12T23:20:38.390Z,101082.11
2023-01-12T23:23:06.046Z,101080.82
2023-01-12T23:25:33.545Z,101082.35
2023-01-12T23:28:00.756Z,101083.02
2023-01-12T23:30:30.868Z,101085.83
2023-01-12T23:33:01.410Z,101086.58
2023-01-12T23:35:28.349Z,101086.43
2023-01-12T23:37:55.300Z,101084.66
2023-01-12T23:40:22.257Z,101083.19
2023-01-12T23:42:49.287Z,101076.27
2023-01-12T23:45:16.339Z,101074.94
2023-01-12T23:47:43.289Z,101073.96
2023-01-12T23:50:11.576Z,101072.33
2023-01-12T23:52:38.567Z,101079.33
2023-01-12T23:55:05.958Z,101078.80
2023-01-12T23:57:33.921Z,101083.45
